Time;durP1;ratioP1;P1;durP2;ratioP2;P2;SDS_P1;SDS_P2;PMS_P1;PMS_P2;Temp;Humidity;BMP_temperature;BMP_pressure;BME280_temperature;BME280_humidity;BME280_pressure;Samples;Min_cycle;Max_cycle;Signal;HPM_P1;HPM_P2
2021/02/12 00:00:10;;;;;;;26.2;16.6;;;;;;;-11.97;100;96085.25;;;;
2021/02/12 00:01:16;;;;;;;26.2;16.6;;;;;;;-11.97;100;96085.25;;;;
2021/02/12 00:02:17;;;;;;;26.2;16.6;;;;;;;-11.97;100;96085.25;;;;
2021/02/12 00:03:18;;;;;;;25.15;16.7;;;;;;;-12.05;100;96073.55;;;;
2021/02/12 00:04:21;;;;;;;25.15;16.7;;;;;;;-12.05;100;96073.55;;;;
2021/02/12 00:05:21;;;;;;;25.15;16.7;;;;;;;-12.05;100;96073.55;;;;
2021/02/12 00:06:22;;;;;;;25.15;16.7;;;;;;;-12.05;100;96073.55;;;;
2021/02/12 00:07:22;;;;;;;25.15;16.7;;;;;;;-12.05;100;96073.55;;;;
2021/02/12 00:08:22;;;;;;;25.15;16.7;;;;;;;-12.05;100;96073.55;;;;
2021/02/12 00:09:26;;;;;;;25.15;16.7;;;;;;;-12.05;100;96073.55;;;;
2021/02/12 00:10:26;;;;;;;25.15;16.7;;;;;;;-12.05;100;96073.55;;;;
2021/02/12 00:11:31;;;;;;;25.15;16.7;;;;;;;-12.05;100;96073.55;;;;
2021/02/12 00:14:32;;;;;;;25.15;17.35;;;;;;;-12.04;100;96058.72;;;;
2021/02/12 00:15:35;;;;;;;25.15;17.35;;;;;;;-12.04;100;96058.72;;;;
2021/02/12 00:16:35;;;;;;;25.15;17.35;;;;;;;-12.04;100;96058.72;;;;
2021/02/12 00:17:36;;;;;;;25.15;17.35;;;;;;;-12.04;100;96058.72;;;;
2021/02/12 00:18:36;;;;;;;25.15;17.35;;;;;;;-12.04;100;96058.72;;;;
2021/02/12 00:19:40;;;;;;;25.15;17.35;;;;;;;-12.04;100;96058.72;;;;
2021/02/12 00:20:40;;;;;;;25.15;17.35;;;;;;;-12.04;100;96058.72;;;;
2021/02/12 00:21:43;;;;;;;25.15;17.35;;;;;;;-12.04;100;96058.72;;;;
2021/02/12 00:22:44;;;;;;;25.15;17.35;;;;;;;-12.04;100;96058.72;;;;
2021/02/12 00:23:44;;;;;;;25.15;17.35;;;;;;;-12.04;100;96058.72;;;;
2021/02/12 00:24:46;;;;;;;25.1;16.9;;;;;;;-12.05;100;96045.74;;;;
2021/02/12 00:25:46;;;;;;;25.1;16.9;;;;;;;-12.05;100;96045.74;;;;
2021/02/12 00:26:47;;;;;;;25.1;16.9;;;;;;;-12.05;100;96045.74;;;;
2021/02/12 00:27:48;;;;;;;25.1;16.9;;;;;;;-12.05;100;96045.74;;;;
2021/02/12 00:28:49;;;;;;;25.1;16.9;;;;;;;-12.05;100;96045.74;;;;
2021/02/12 00:29:50;;;;;;;25.1;16.9;;;;;;;-12.05;100;96045.74;;;;
2021/02/12 00:30:50;;;;;;;25.1;16.9;;;;;;;-12.05;100;96045.74;;;;
2021/02/12 00:31:51;;;;;;;25.1;16.9;;;;;;;-12.05;100;96045.74;;;;
2021/02/12 00:32:55;;;;;;;25.1;16.9;;;;;;;-12.05;100;96045.74;;;;
2021/02/12 00:33:56;;;;;;;25.1;16.9;;;;;;;-12.05;100;96045.74;;;;
2021/02/12 00:34:57;;;;;;;25.1;16.9;;;;;;;-12.05;100;96045.74;;;;
2021/02/12 00:35:57;;;;;;;25.8;16.85;;;;;;;-12.07;100;96050.67;;;;
2021/02/12 00:36:58;;;;;;;25.8;16.85;;;;;;;-12.07;100;96050.67;;;;
2021/02/12 00:37:59;;;;;;;25.8;16.85;;;;;;;-12.07;100;96050.67;;;;
2021/02/12 00:39:00;;;;;;;25.8;16.85;;;;;;;-12.07;100;96050.67;;;;
2021/02/12 00:40:01;;;;;;;25.8;16.85;;;;;;;-12.07;100;96050.67;;;;
2021/02/12 00:41:05;;;;;;;25.8;16.85;;;;;;;-12.07;100;96050.67;;;;
2021/02/12 00:42:08;;;;;;;25.8;16.85;;;;;;;-12.07;100;96050.67;;;;
2021/02/12 00:43:09;;;;;;;25.8;16.85;;;;;;;-12.07;100;96050.67;;;;
2021/02/12 00:48:09;;;;;;;26.85;17.3;;;;;;;-12.12;100;96039.64;;;;
2021/02/12 00:49:10;;;;;;;26.85;17.3;;;;;;;-12.12;100;96039.64;;;;
2021/02/12 00:50:12;;;;;;;26.85;17.3;;;;;;;-12.12;100;96039.64;;;;
2021/02/12 00:51:15;;;;;;;26.85;17.3;;;;;;;-12.12;100;96039.64;;;;
2021/02/12 00:52:17;;;;;;;26.85;17.3;;;;;;;-12.12;100;96039.64;;;;
2021/02/12 00:53:17;;;;;;;26.85;17.3;;;;;;;-12.12;100;96039.64;;;;
2021/02/12 00:54:18;;;;;;;26.85;17.3;;;;;;;-12.12;100;96039.64;;;;
2021/02/12 00:55:18;;;;;;;26.85;17.3;;;;;;;-12.12;100;96039.64;;;;
2021/02/12 00:56:20;;;;;;;26.85;17.3;;;;;;;-12.12;100;96039.64;;;;
2021/02/12 00:57:21;;;;;;;25.1;16.85;;;;;;;-12.16;100;96045.47;;;;
2021/02/12 00:58:21;;;;;;;25.1;16.85;;;;;;;-12.16;100;96045.47;;;;
2021/02/12 00:59:22;;;;;;;25.1;16.85;;;;;;;-12.16;100;96045.47;;;;
2021/02/12 01:00:22;;;;;;;25.1;16.85;;;;;;;-12.16;100;96045.47;;;;
2021/02/12 01:01:24;;;;;;;25.1;16.85;;;;;;;-12.16;100;96045.47;;;;
2021/02/12 01:02:24;;;;;;;25.1;16.85;;;;;;;-12.16;100;96045.47;;;;
2021/02/12 01:03:25;;;;;;;25.1;16.85;;;;;;;-12.16;100;96045.47;;;;
2021/02/12 01:04:26;;;;;;;25.1;16.85;;;;;;;-12.16;100;96045.47;;;;
2021/02/12 01:05:26;;;;;;;25.1;16.85;;;;;;;-12.16;100;96045.47;;;;
2021/02/12 01:06:27;;;;;;;25.1;16.85;;;;;;;-12.16;100;96045.47;;;;
2021/02/12 01:07:28;;;;;;;26.95;17.25;;;;;;;-12.14;100;96043.69;;;;
2021/02/12 01:08:29;;;;;;;26.95;17.25;;;;;;;-12.14;100;96043.69;;;;
2021/02/12 01:09:30;;;;;;;26.95;17.25;;;;;;;-12.14;100;96043.69;;;;
2021/02/12 01:10:30;;;;;;;26.95;17.25;;;;;;;-12.14;100;96043.69;;;;
2021/02/12 01:11:31;;;;;;;26.95;17.25;;;;;;;-12.14;100;96043.69;;;;
2021/02/12 01:12:31;;;;;;;26.95;17.25;;;;;;;-12.14;100;96043.69;;;;
2021/02/12 01:13:32;;;;;;;26.95;17.25;;;;;;;-12.14;100;96043.69;;;;
2021/02/12 01:14:32;;;;;;;26.95;17.25;;;;;;;-12.14;100;96043.69;;;;
2021/02/12 01:15:33;;;;;;;26.95;17.25;;;;;;;-12.14;100;96043.69;;;;
2021/02/12 01:16:33;;;;;;;26.95;17.25;;;;;;;-12.14;100;96043.69;;;;
2021/02/12 01:17:34;;;;;;;26.95;17.25;;;;;;;-12.14;100;96043.69;;;;
2021/02/12 01:18:35;;;;;;;27.8;17.25;;;;;;;-12.22;100;96045.81;;;;
2021/02/12 01:19:37;;;;;;;27.8;17.25;;;;;;;-12.22;100;96045.81;;;;
2021/02/12 01:20:38;;;;;;;27.8;17.25;;;;;;;-12.22;100;96045.81;;;;
2021/02/12 01:21:40;;;;;;;27.8;17.25;;;;;;;-12.22;100;96045.81;;;;
2021/02/12 01:22:40;;;;;;;27.8;17.25;;;;;;;-12.22;100;96045.81;;;;
2021/02/12 01:23:41;;;;;;;27.8;17.25;;;;;;;-12.22;100;96045.81;;;;
2021/02/12 01:24:42;;;;;;;27.8;17.25;;;;;;;-12.22;100;96045.81;;;;
2021/02/12 01:25:42;;;;;;;27.8;17.25;;;;;;;-12.22;100;96045.81;;;;
2021/02/12 01:26:43;;;;;;;27.8;17.25;;;;;;;-12.22;100;96045.81;;;;
2021/02/12 01:27:43;;;;;;;27.8;17.25;;;;;;;-12.22;100;96045.81;;;;
2021/02/12 01:28:44;;;;;;;23.85;16.7;;;;;;;-12.16;100;96050.28;;;;
2021/02/12 01:29:44;;;;;;;23.85;16.7;;;;;;;-12.16;100;96050.28;;;;
2021/02/12 01:30:45;;;;;;;23.85;16.7;;;;;;;-12.16;100;96050.28;;;;
2021/02/12 01:31:45;;;;;;;23.85;16.7;;;;;;;-12.16;100;96050.28;;;;
2021/02/12 01:32:46;;;;;;;23.85;16.7;;;;;;;-12.16;100;96050.28;;;;
2021/02/12 01:33:47;;;;;;;23.85;16.7;;;;;;;-12.16;100;96050.28;;;;
2021/02/12 01:34:47;;;;;;;23.85;16.7;;;;;;;-12.16;100;96050.28;;;;
2021/02/12 01:35:48;;;;;;;23.85;16.7;;;;;;;-12.16;100;96050.28;;;;
2021/02/12 01:36:48;;;;;;;23.85;16.7;;;;;;;-12.16;100;96050.28;;;;
2021/02/12 01:37:49;;;;;;;23.85;16.7;;;;;;;-12.16;100;96050.28;;;;
2021/02/12 01:38:50;;;;;;;23.85;16.7;;;;;;;-12.16;100;96050.28;;;;
2021/02/12 01:39:51;;;;;;;26.15;17.15;;;;;;;-12.13;100;96046.2;;;;
2021/02/12 01:40:51;;;;;;;26.15;17.15;;;;;;;-12.13;100;96046.2;;;;
2021/02/12 01:41:52;;;;;;;26.15;17.15;;;;;;;-12.13;100;96046.2;;;;
2021/02/12 01:42:52;;;;;;;26.15;17.15;;;;;;;-12.13;100;96046.2;;;;
2021/02/12 01:43:53;;;;;;;26.15;17.15;;;;;;;-12.13;100;96046.2;;;;
2021/02/12 01:44:53;;;;;;;26.15;17.15;;;;;;;-12.13;100;96046.2;;;;
2021/02/12 01:45:54;;;;;;;26.15;17.15;;;;;;;-12.13;100;96046.2;;;;
2021/02/12 01:46:55;;;;;;;26.15;17.15;;;;;;;-12.13;100;96046.2;;;;
2021/02/12 01:48:06;;;;;;;26.15;17.15;;;;;;;-12.13;100;96046.2;;;;
2021/02/12 01:49:07;;;;;;;26.15;17.15;;;;;;;-12.13;100;96046.2;;;;
2021/02/12 01:50:07;;;;;;;27.95;17.7;;;;;;;-12.08;100;96045.06;;;;
2021/02/12 01:51:11;;;;;;;27.95;17.7;;;;;;;-12.08;100;96045.06;;;;
2021/02/12 01:52:11;;;;;;;27.95;17.7;;;;;;;-12.08;100;96045.06;;;;
2021/02/12 01:53:12;;;;;;;27.95;17.7;;;;;;;-12.08;100;96045.06;;;;
2021/02/12 01:54:13;;;;;;;27.95;17.7;;;;;;;-12.08;100;96045.06;;;;
2021/02/12 01:55:14;;;;;;;27.95;17.7;;;;;;;-12.08;100;96045.06;;;;
2021/02/12 01:56:14;;;;;;;27.95;17.7;;;;;;;-12.08;100;96045.06;;;;
2021/02/12 01:57:15;;;;;;;27.95;17.7;;;;;;;-12.08;100;96045.06;;;;
2021/02/12 01:58:16;;;;;;;27.95;17.7;;;;;;;-12.08;100;96045.06;;;;
2021/02/12 01:59:16;;;;;;;27.95;17.7;;;;;;;-12.08;100;96045.06;;;;
2021/02/12 02:00:17;;;;;;;27.95;17.7;;;;;;;-12.08;100;96045.06;;;;
2021/02/12 02:01:18;;;;;;;27.3;16.75;;;;;;;-12.06;100;96041.5;;;;
2021/02/12 02:02:19;;;;;;;27.3;16.75;;;;;;;-12.06;100;96041.5;;;;
2021/02/12 02:03:19;;;;;;;27.3;16.75;;;;;;;-12.06;100;96041.5;;;;
2021/02/12 02:04:20;;;;;;;27.3;16.75;;;;;;;-12.06;100;96041.5;;;;
2021/02/12 02:05:23;;;;;;;27.3;16.75;;;;;;;-12.06;100;96041.5;;;;
2021/02/12 02:06:24;;;;;;;27.3;16.75;;;;;;;-12.06;100;96041.5;;;;
2021/02/12 02:07:30;;;;;;;27.3;16.75;;;;;;;-12.06;100;96041.5;;;;
2021/02/12 02:08:36;;;;;;;27.3;16.75;;;;;;;-12.06;100;96041.5;;;;
2021/02/12 02:09:42;;;;;;;27.3;16.75;;;;;;;-12.06;100;96041.5;;;;
2021/02/12 02:10:51;;;;;;;27.3;16.75;;;;;;;-12.06;100;96041.5;;;;
2021/02/12 02:11:57;;;;;;;26.9;17.05;;;;;;;-12.13;100;96032.34;;;;
2021/02/12 02:13:04;;;;;;;26.9;17.05;;;;;;;-12.13;100;96032.34;;;;
2021/02/12 02:14:09;;;;;;;26.9;17.05;;;;;;;-12.13;100;96032.34;;;;
2021/02/12 02:15:10;;;;;;;26.9;17.05;;;;;;;-12.13;100;96032.34;;;;
2021/02/12 02:16:11;;;;;;;26.9;17.05;;;;;;;-12.13;100;96032.34;;;;
2021/02/12 02:17:14;;;;;;;26.9;17.05;;;;;;;-12.13;100;96032.34;;;;
2021/02/12 02:18:15;;;;;;;26.9;17.05;;;;;;;-12.13;100;96032.34;;;;
2021/02/12 02:19:17;;;;;;;26.9;17.05;;;;;;;-12.13;100;96032.34;;;;
2021/02/12 02:20:23;;;;;;;26.9;17.05;;;;;;;-12.13;100;96032.34;;;;
2021/02/12 02:21:27;;;;;;;26.9;17.05;;;;;;;-12.13;100;96032.34;;;;
2021/02/12 02:22:28;;;;;;;26.95;16.95;;;;;;;-12.15;100;96014.67;;;;
2021/02/12 02:25:32;;;;;;;26.95;16.95;;;;;;;-12.15;100;96014.67;;;;
2021/02/12 02:26:43;;;;;;;26.95;16.95;;;;;;;-12.15;100;96014.67;;;;
2021/02/12 02:27:51;;;;;;;26.95;16.95;;;;;;;-12.15;100;96014.67;;;;
2021/02/12 02:28:54;;;;;;;26.95;16.95;;;;;;;-12.15;100;96014.67;;;;
2021/02/12 02:29:57;;;;;;;26.95;16.95;;;;;;;-12.15;100;96014.67;;;;
2021/02/12 02:30:59;;;;;;;26.95;16.95;;;;;;;-12.15;100;96014.67;;;;
2021/02/12 02:32:02;;;;;;;26.95;16.95;;;;;;;-12.15;100;96014.67;;;;
2021/02/12 02:33:06;;;;;;;25.85;17.15;;;;;;;-12.18;100;96008.31;;;;
2021/02/12 02:34:08;;;;;;;25.85;17.15;;;;;;;-12.18;100;96008.31;;;;
2021/02/12 02:35:14;;;;;;;25.85;17.15;;;;;;;-12.18;100;96008.31;;;;
2021/02/12 02:36:18;;;;;;;25.85;17.15;;;;;;;-12.18;100;96008.31;;;;
2021/02/12 02:37:23;;;;;;;25.85;17.15;;;;;;;-12.18;100;96008.31;;;;
2021/02/12 02:38:24;;;;;;;25.85;17.15;;;;;;;-12.18;100;96008.31;;;;
2021/02/12 02:39:28;;;;;;;25.85;17.15;;;;;;;-12.18;100;96008.31;;;;
2021/02/12 02:40:30;;;;;;;25.85;17.15;;;;;;;-12.18;100;96008.31;;;;
2021/02/12 02:41:31;;;;;;;25.85;17.15;;;;;;;-12.18;100;96008.31;;;;
2021/02/12 02:42:33;;;;;;;25.85;17.15;;;;;;;-12.18;100;96008.31;;;;
2021/02/12 02:43:35;;;;;;;27.85;17.65;;;;;;;-12.26;100;96014.83;;;;
2021/02/12 02:44:37;;;;;;;27.85;17.65;;;;;;;-12.26;100;96014.83;;;;
2021/02/12 02:45:40;;;;;;;27.85;17.65;;;;;;;-12.26;100;96014.83;;;;
2021/02/12 02:46:41;;;;;;;27.85;17.65;;;;;;;-12.26;100;96014.83;;;;
2021/02/12 02:47:43;;;;;;;27.85;17.65;;;;;;;-12.26;100;96014.83;;;;
2021/02/12 02:48:44;;;;;;;27.85;17.65;;;;;;;-12.26;100;96014.83;;;;
2021/02/12 02:49:45;;;;;;;27.85;17.65;;;;;;;-12.26;100;96014.83;;;;
2021/02/12 02:50:47;;;;;;;27.85;17.65;;;;;;;-12.26;100;96014.83;;;;
2021/02/12 02:51:50;;;;;;;27.85;17.65;;;;;;;-12.26;100;96014.83;;;;
2021/02/12 02:52:53;;;;;;;27.85;17.65;;;;;;;-12.26;100;96014.83;;;;
2021/02/12 02:53:54;;;;;;;27.55;18;;;;;;;-12.33;100;96010.88;;;;
2021/02/12 02:54:57;;;;;;;27.55;18;;;;;;;-12.33;100;96010.88;;;;
2021/02/12 02:55:58;;;;;;;27.55;18;;;;;;;-12.33;100;96010.88;;;;
2021/02/12 02:56:59;;;;;;;27.55;18;;;;;;;-12.33;100;96010.88;;;;
2021/02/12 02:58:01;;;;;;;27.55;18;;;;;;;-12.33;100;96010.88;;;;
2021/02/12 02:59:05;;;;;;;27.55;18;;;;;;;-12.33;100;96010.88;;;;
2021/02/12 03:00:07;;;;;;;27.55;18;;;;;;;-12.33;100;96010.88;;;;
2021/02/12 03:01:09;;;;;;;27.55;18;;;;;;;-12.33;100;96010.88;;;;
2021/02/12 03:02:10;;;;;;;27.55;18;;;;;;;-12.33;100;96010.88;;;;
2021/02/12 03:03:11;;;;;;;27.55;18;;;;;;;-12.33;100;96010.88;;;;
2021/02/12 03:04:12;;;;;;;27.55;18;;;;;;;-12.33;100;96010.88;;;;
2021/02/12 03:05:14;;;;;;;26.8;17.8;;;;;;;-12.35;100;96013.59;;;;
2021/02/12 03:06:15;;;;;;;26.8;17.8;;;;;;;-12.35;100;96013.59;;;;
2021/02/12 03:07:16;;;;;;;26.8;17.8;;;;;;;-12.35;100;96013.59;;;;
2021/02/12 03:08:18;;;;;;;26.8;17.8;;;;;;;-12.35;100;96013.59;;;;
2021/02/12 03:09:21;;;;;;;26.8;17.8;;;;;;;-12.35;100;96013.59;;;;
2021/02/12 03:10:22;;;;;;;26.8;17.8;;;;;;;-12.35;100;96013.59;;;;
2021/02/12 03:11:23;;;;;;;26.8;17.8;;;;;;;-12.35;100;96013.59;;;;
2021/02/12 03:12:24;;;;;;;26.8;17.8;;;;;;;-12.35;100;96013.59;;;;
2021/02/12 03:13:25;;;;;;;26.8;17.8;;;;;;;-12.35;100;96013.59;;;;
2021/02/12 03:14:28;;;;;;;26.8;17.8;;;;;;;-12.35;100;96013.59;;;;
2021/02/12 03:15:30;;;;;;;30.09999;18.1;;;;;;;-12.35;100;96013.14;;;;
2021/02/12 03:16:32;;;;;;;30.09999;18.1;;;;;;;-12.35;100;96013.14;;;;
2021/02/12 03:17:33;;;;;;;30.09999;18.1;;;;;;;-12.35;100;96013.14;;;;
2021/02/12 03:18:35;;;;;;;30.09999;18.1;;;;;;;-12.35;100;96013.14;;;;
2021/02/12 03:19:36;;;;;;;30.09999;18.1;;;;;;;-12.35;100;96013.14;;;;
2021/02/12 03:20:39;;;;;;;30.09999;18.1;;;;;;;-12.35;100;96013.14;;;;
2021/02/12 03:21:40;;;;;;;30.09999;18.1;;;;;;;-12.35;100;96013.14;;;;
2021/02/12 03:22:46;;;;;;;30.09999;18.1;;;;;;;-12.35;100;96013.14;;;;
2021/02/12 03:23:47;;;;;;;30.09999;18.1;;;;;;;-12.35;100;96013.14;;;;
2021/02/12 03:24:49;;;;;;;30.09999;18.1;;;;;;;-12.35;100;96013.14;;;;
2021/02/12 03:25:50;;;;;;;26.65;18.05;;;;;;;-12.28;100;96018.39;;;;
2021/02/12 03:26:51;;;;;;;26.65;18.05;;;;;;;-12.28;100;96018.39;;;;
2021/02/12 03:27:52;;;;;;;26.65;18.05;;;;;;;-12.28;100;96018.39;;;;
2021/02/12 03:28:55;;;;;;;26.65;18.05;;;;;;;-12.28;100;96018.39;;;;
2021/02/12 03:29:56;;;;;;;26.65;18.05;;;;;;;-12.28;100;96018.39;;;;
2021/02/12 03:30:56;;;;;;;26.65;18.05;;;;;;;-12.28;100;96018.39;;;;
2021/02/12 03:31:57;;;;;;;26.65;18.05;;;;;;;-12.28;100;96018.39;;;;
2021/02/12 03:32:58;;;;;;;26.65;18.05;;;;;;;-12.28;100;96018.39;;;;
2021/02/12 03:33:59;;;;;;;26.65;18.05;;;;;;;-12.28;100;96018.39;;;;
2021/02/12 03:35:00;;;;;;;26.65;18.05;;;;;;;-12.28;100;96018.39;;;;
2021/02/12 03:36:03;;;;;;;26.65;18.05;;;;;;;-12.28;100;96018.39;;;;
2021/02/12 03:37:05;;;;;;;28.45;17.85;;;;;;;-12.28;100;96030.1;;;;
2021/02/12 03:38:05;;;;;;;28.45;17.85;;;;;;;-12.28;100;96030.1;;;;
2021/02/12 03:39:09;;;;;;;28.45;17.85;;;;;;;-12.28;100;96030.1;;;;
2021/02/12 03:40:10;;;;;;;28.45;17.85;;;;;;;-12.28;100;96030.1;;;;
2021/02/12 03:41:13;;;;;;;28.45;17.85;;;;;;;-12.28;100;96030.1;;;;
2021/02/12 03:42:14;;;;;;;28.45;17.85;;;;;;;-12.28;100;96030.1;;;;
2021/02/12 03:43:15;;;;;;;28.45;17.85;;;;;;;-12.28;100;96030.1;;;;
2021/02/12 03:44:16;;;;;;;28.45;17.85;;;;;;;-12.28;100;96030.1;;;;
2021/02/12 03:45:17;;;;;;;28.45;17.85;;;;;;;-12.28;100;96030.1;;;;
2021/02/12 03:46:20;;;;;;;28.45;17.85;;;;;;;-12.28;100;96030.1;;;;
2021/02/12 03:47:21;;;;;;;28.1;17.9;;;;;;;-12.35;100;96027.89;;;;
2021/02/12 03:48:21;;;;;;;28.1;17.9;;;;;;;-12.35;100;96027.89;;;;
2021/02/12 03:49:24;;;;;;;28.1;17.9;;;;;;;-12.35;100;96027.89;;;;
2021/02/12 03:50:25;;;;;;;28.1;17.9;;;;;;;-12.35;100;96027.89;;;;
2021/02/12 03:51:26;;;;;;;28.1;17.9;;;;;;;-12.35;100;96027.89;;;;
2021/02/12 03:52:29;;;;;;;28.1;17.9;;;;;;;-12.35;100;96027.89;;;;
2021/02/12 03:53:31;;;;;;;28.1;17.9;;;;;;;-12.35;100;96027.89;;;;
2021/02/12 03:54:32;;;;;;;28.1;17.9;;;;;;;-12.35;100;96027.89;;;;
2021/02/12 03:55:33;;;;;;;28.1;17.9;;;;;;;-12.35;100;96027.89;;;;
2021/02/12 03:56:35;;;;;;;28.1;17.9;;;;;;;-12.35;100;96027.89;;;;
2021/02/12 03:57:36;;;;;;;28.1;17.9;;;;;;;-12.35;100;96027.89;;;;
2021/02/12 03:58:38;;;;;;;27.15;17.85;;;;;;;-12.33;100;96023.88;;;;
2021/02/12 03:59:39;;;;;;;27.15;17.85;;;;;;;-12.33;100;96023.88;;;;
2021/02/12 04:00:40;;;;;;;27.15;17.85;;;;;;;-12.33;100;96023.88;;;;
2021/02/12 04:01:41;;;;;;;27.15;17.85;;;;;;;-12.33;100;96023.88;;;;
2021/02/12 04:02:43;;;;;;;27.15;17.85;;;;;;;-12.33;100;96023.88;;;;
2021/02/12 04:03:47;;;;;;;27.15;17.85;;;;;;;-12.33;100;96023.88;;;;
2021/02/12 04:04:49;;;;;;;27.15;17.85;;;;;;;-12.33;100;96023.88;;;;
2021/02/12 04:05:50;;;;;;;27.15;17.85;;;;;;;-12.33;100;96023.88;;;;
2021/02/12 04:06:52;;;;;;;27.15;17.85;;;;;;;-12.33;100;96023.88;;;;
2021/02/12 04:07:52;;;;;;;27.15;17.85;;;;;;;-12.33;100;96023.88;;;;
2021/02/12 04:08:54;;;;;;;27.4;17.7;;;;;;;-12.3;100;96035.02;;;;
2021/02/12 04:09:55;;;;;;;27.4;17.7;;;;;;;-12.3;100;96035.02;;;;
2021/02/12 04:10:55;;;;;;;27.4;17.7;;;;;;;-12.3;100;96035.02;;;;
2021/02/12 04:11:56;;;;;;;27.4;17.7;;;;;;;-12.3;100;96035.02;;;;
2021/02/12 04:12:58;;;;;;;27.4;17.7;;;;;;;-12.3;100;96035.02;;;;
2021/02/12 04:14:01;;;;;;;27.4;17.7;;;;;;;-12.3;100;96035.02;;;;
2021/02/12 04:15:03;;;;;;;27.4;17.7;;;;;;;-12.3;100;96035.02;;;;
2021/02/12 04:16:05;;;;;;;27.4;17.7;;;;;;;-12.3;100;96035.02;;;;
2021/02/12 04:17:07;;;;;;;27.4;17.7;;;;;;;-12.3;100;96035.02;;;;
2021/02/12 04:18:08;;;;;;;27.4;17.7;;;;;;;-12.3;100;96035.02;;;;
2021/02/12 04:19:11;;;;;;;37.15;18.3;;;;;;;-12.36;100;96037.48;;;;
2021/02/12 04:20:13;;;;;;;37.15;18.3;;;;;;;-12.36;100;96037.48;;;;
2021/02/12 04:21:15;;;;;;;37.15;18.3;;;;;;;-12.36;100;96037.48;;;;
2021/02/12 04:22:16;;;;;;;37.15;18.3;;;;;;;-12.36;100;96037.48;;;;
2021/02/12 04:23:18;;;;;;;37.15;18.3;;;;;;;-12.36;100;96037.48;;;;
2021/02/12 04:24:19;;;;;;;37.15;18.3;;;;;;;-12.36;100;96037.48;;;;
2021/02/12 04:25:20;;;;;;;37.15;18.3;;;;;;;-12.36;100;96037.48;;;;
2021/02/12 04:26:24;;;;;;;37.15;18.3;;;;;;;-12.36;100;96037.48;;;;
2021/02/12 04:27:24;;;;;;;37.15;18.3;;;;;;;-12.36;100;96037.48;;;;
2021/02/12 04:28:25;;;;;;;37.15;18.3;;;;;;;-12.36;100;96037.48;;;;
2021/02/12 04:29:26;;;;;;;37.15;18.3;;;;;;;-12.36;100;96037.48;;;;
2021/02/12 04:30:27;;;;;;;27.8;17.1;;;;;;;-12.42;100;96025.67;;;;
2021/02/12 04:31:28;;;;;;;27.8;17.1;;;;;;;-12.42;100;96025.67;;;;
2021/02/12 04:32:30;;;;;;;27.8;17.1;;;;;;;-12.42;100;96025.67;;;;
2021/02/12 04:33:31;;;;;;;27.8;17.1;;;;;;;-12.42;100;96025.67;;;;
2021/02/12 04:34:34;;;;;;;27.8;17.1;;;;;;;-12.42;100;96025.67;;;;
2021/02/12 04:35:35;;;;;;;27.8;17.1;;;;;;;-12.42;100;96025.67;;;;
2021/02/12 04:36:37;;;;;;;27.8;17.1;;;;;;;-12.42;100;96025.67;;;;
2021/02/12 04:37:38;;;;;;;27.8;17.1;;;;;;;-12.42;100;96025.67;;;;
2021/02/12 04:38:39;;;;;;;27.8;17.1;;;;;;;-12.42;100;96025.67;;;;
2021/02/12 04:39:41;;;;;;;27.8;17.1;;;;;;;-12.42;100;96025.67;;;;
2021/02/12 04:40:42;;;;;;;26.3;17.25;;;;;;;-12.5;100;96033.04;;;;
2021/02/12 04:41:48;;;;;;;26.3;17.25;;;;;;;-12.5;100;96033.04;;;;
2021/02/12 04:42:50;;;;;;;26.3;17.25;;;;;;;-12.5;100;96033.04;;;;
2021/02/12 04:43:53;;;;;;;26.3;17.25;;;;;;;-12.5;100;96033.04;;;;
2021/02/12 04:44:58;;;;;;;26.3;17.25;;;;;;;-12.5;100;96033.04;;;;
2021/02/12 04:46:01;;;;;;;26.3;17.25;;;;;;;-12.5;100;96033.04;;;;
2021/02/12 04:47:06;;;;;;;26.3;17.25;;;;;;;-12.5;100;96033.04;;;;
2021/02/12 04:48:12;;;;;;;26.3;17.25;;;;;;;-12.5;100;96033.04;;;;
2021/02/12 04:49:25;;;;;;;26.3;17.25;;;;;;;-12.5;100;96033.04;;;;
2021/02/12 04:50:36;;;;;;;26.3;17.25;;;;;;;-12.5;100;96033.04;;;;
2021/02/12 04:51:45;;;;;;;27.55;18.05;;;;;;;-12.41;100;96021.28;;;;
2021/02/12 04:52:51;;;;;;;27.55;18.05;;;;;;;-12.41;100;96021.28;;;;
2021/02/12 04:54:00;;;;;;;27.55;18.05;;;;;;;-12.41;100;96021.28;;;;
2021/02/12 04:55:11;;;;;;;27.55;18.05;;;;;;;-12.41;100;96021.28;;;;
2021/02/12 04:56:18;;;;;;;27.55;18.05;;;;;;;-12.41;100;96021.28;;;;
2021/02/12 04:57:21;;;;;;;27.55;18.05;;;;;;;-12.41;100;96021.28;;;;
2021/02/12 04:58:31;;;;;;;27.55;18.05;;;;;;;-12.41;100;96021.28;;;;
2021/02/12 04:59:37;;;;;;;27.55;18.05;;;;;;;-12.41;100;96021.28;;;;
2021/02/12 05:00:44;;;;;;;27.55;18.05;;;;;;;-12.41;100;96021.28;;;;
2021/02/12 05:01:46;;;;;;;27.55;18.05;;;;;;;-12.41;100;96021.28;;;;
2021/02/12 05:03:00;;;;;;;26.6;17.05;;;;;;;-12.33;100;96018.68;;;;
2021/02/12 05:04:19;;;;;;;26.6;17.05;;;;;;;-12.33;100;96018.68;;;;
2021/02/12 05:05:26;;;;;;;26.6;17.05;;;;;;;-12.33;100;96018.68;;;;
2021/02/12 05:06:53;;;;;;;26.6;17.05;;;;;;;-12.33;100;96018.68;;;;
2021/02/12 05:07:59;;;;;;;26.6;17.05;;;;;;;-12.33;100;96018.68;;;;
2021/02/12 05:09:06;;;;;;;26.6;17.05;;;;;;;-12.33;100;96018.68;;;;
2021/02/12 05:10:11;;;;;;;26.6;17.05;;;;;;;-12.33;100;96018.68;;;;
2021/02/12 05:11:17;;;;;;;26.6;17.05;;;;;;;-12.33;100;96018.68;;;;
2021/02/12 05:12:21;;;;;;;26.6;17.05;;;;;;;-12.33;100;96018.68;;;;
2021/02/12 05:13:29;;;;;;;28.1;17.35;;;;;;;-12.28;100;96001.06;;;;
2021/02/12 05:14:38;;;;;;;28.1;17.35;;;;;;;-12.28;100;96001.06;;;;
2021/02/12 05:15:46;;;;;;;28.1;17.35;;;;;;;-12.28;100;96001.06;;;;
2021/02/12 05:16:56;;;;;;;28.1;17.35;;;;;;;-12.28;100;96001.06;;;;
2021/02/12 05:18:10;;;;;;;28.1;17.35;;;;;;;-12.28;100;96001.06;;;;
2021/02/12 05:19:16;;;;;;;28.1;17.35;;;;;;;-12.28;100;96001.06;;;;
2021/02/12 05:20:24;;;;;;;28.1;17.35;;;;;;;-12.28;100;96001.06;;;;
2021/02/12 05:21:34;;;;;;;28.1;17.35;;;;;;;-12.28;100;96001.06;;;;
2021/02/12 05:22:39;;;;;;;28.1;17.35;;;;;;;-12.28;100;96001.06;;;;
2021/02/12 05:23:54;;;;;;;31.4;18.4;;;;;;;-12.29;100;96001.57;;;;
2021/02/12 05:24:58;;;;;;;31.4;18.4;;;;;;;-12.29;100;96001.57;;;;
2021/02/12 05:26:04;;;;;;;31.4;18.4;;;;;;;-12.29;100;96001.57;;;;
2021/02/12 05:27:09;;;;;;;31.4;18.4;;;;;;;-12.29;100;96001.57;;;;
2021/02/12 05:28:15;;;;;;;31.4;18.4;;;;;;;-12.29;100;96001.57;;;;
2021/02/12 05:29:33;;;;;;;31.4;18.4;;;;;;;-12.29;100;96001.57;;;;
2021/02/12 05:30:42;;;;;;;31.4;18.4;;;;;;;-12.29;100;96001.57;;;;
2021/02/12 05:31:49;;;;;;;31.4;18.4;;;;;;;-12.29;100;96001.57;;;;
2021/02/12 05:32:54;;;;;;;31.4;18.4;;;;;;;-12.29;100;96001.57;;;;
2021/02/12 05:34:01;;;;;;;28.4;18.3;;;;;;;-12.37;100;95995.9;;;;
2021/02/12 05:35:07;;;;;;;28.4;18.3;;;;;;;-12.37;100;95995.9;;;;
2021/02/12 05:36:14;;;;;;;28.4;18.3;;;;;;;-12.37;100;95995.9;;;;
2021/02/12 05:37:22;;;;;;;28.4;18.3;;;;;;;-12.37;100;95995.9;;;;
2021/02/12 05:38:28;;;;;;;28.4;18.3;;;;;;;-12.37;100;95995.9;;;;
2021/02/12 05:39:37;;;;;;;28.4;18.3;;;;;;;-12.37;100;95995.9;;;;
2021/02/12 05:40:49;;;;;;;28.4;18.3;;;;;;;-12.37;100;95995.9;;;;
2021/02/12 05:42:02;;;;;;;28.4;18.3;;;;;;;-12.37;100;95995.9;;;;
2021/02/12 05:43:15;;;;;;;28.4;18.3;;;;;;;-12.37;100;95995.9;;;;
2021/02/12 05:44:18;;;;;;;28.4;18.3;;;;;;;-12.37;100;95995.9;;;;
2021/02/12 05:45:22;;;;;;;28.95;18.9;;;;;;;-12.43;100;96001.03;;;;
2021/02/12 05:46:29;;;;;;;28.95;18.9;;;;;;;-12.43;100;96001.03;;;;
2021/02/12 05:47:33;;;;;;;28.95;18.9;;;;;;;-12.43;100;96001.03;;;;
2021/02/12 05:48:41;;;;;;;28.95;18.9;;;;;;;-12.43;100;96001.03;;;;
2021/02/12 05:49:55;;;;;;;28.95;18.9;;;;;;;-12.43;100;96001.03;;;;
2021/02/12 05:51:05;;;;;;;28.95;18.9;;;;;;;-12.43;100;96001.03;;;;
2021/02/12 05:52:16;;;;;;;28.95;18.9;;;;;;;-12.43;100;96001.03;;;;
2021/02/12 05:53:31;;;;;;;28.95;18.9;;;;;;;-12.43;100;96001.03;;;;
2021/02/12 05:54:38;;;;;;;28.95;18.9;;;;;;;-12.43;100;96001.03;;;;
2021/02/12 05:55:50;;;;;;;29.45;19.05;;;;;;;-12.39;100;96006.41;;;;
2021/02/12 05:56:56;;;;;;;29.45;19.05;;;;;;;-12.39;100;96006.41;;;;
2021/02/12 05:58:07;;;;;;;29.45;19.05;;;;;;;-12.39;100;96006.41;;;;
2021/02/12 05:59:11;;;;;;;29.45;19.05;;;;;;;-12.39;100;96006.41;;;;
2021/02/12 06:00:21;;;;;;;29.45;19.05;;;;;;;-12.39;100;96006.41;;;;
2021/02/12 06:01:28;;;;;;;29.45;19.05;;;;;;;-12.39;100;96006.41;;;;
2021/02/12 06:02:37;;;;;;;29.45;19.05;;;;;;;-12.39;100;96006.41;;;;
2021/02/12 06:03:52;;;;;;;29.45;19.05;;;;;;;-12.39;100;96006.41;;;;
2021/02/12 06:04:57;;;;;;;29.45;19.05;;;;;;;-12.39;100;96006.41;;;;
2021/02/12 06:06:06;;;;;;;30.2;18.9;;;;;;;-12.38;100;96010.71;;;;
2021/02/12 06:07:08;;;;;;;30.2;18.9;;;;;;;-12.38;100;96010.71;;;;
2021/02/12 06:08:11;;;;;;;30.2;18.9;;;;;;;-12.38;100;96010.71;;;;
2021/02/12 06:09:14;;;;;;;30.2;18.9;;;;;;;-12.38;100;96010.71;;;;
2021/02/12 06:10:16;;;;;;;30.2;18.9;;;;;;;-12.38;100;96010.71;;;;
2021/02/12 06:11:20;;;;;;;30.2;18.9;;;;;;;-12.38;100;96010.71;;;;
2021/02/12 06:12:29;;;;;;;30.2;18.9;;;;;;;-12.38;100;96010.71;;;;
2021/02/12 06:13:39;;;;;;;30.2;18.9;;;;;;;-12.38;100;96010.71;;;;
2021/02/12 06:14:46;;;;;;;30.2;18.9;;;;;;;-12.38;100;96010.71;;;;
2021/02/12 06:16:00;;;;;;;30.2;18.9;;;;;;;-12.38;100;96010.71;;;;
2021/02/12 06:17:08;;;;;;;26.85;18.05;;;;;;;-12.21;100;96006.73;;;;
2021/02/12 06:18:18;;;;;;;26.85;18.05;;;;;;;-12.21;100;96006.73;;;;
2021/02/12 06:19:34;;;;;;;26.85;18.05;;;;;;;-12.21;100;96006.73;;;;
2021/02/12 06:20:38;;;;;;;26.85;18.05;;;;;;;-12.21;100;96006.73;;;;
2021/02/12 06:21:42;;;;;;;26.85;18.05;;;;;;;-12.21;100;96006.73;;;;